createdAt,value
2022-12-09T00:01:20.998Z,98706.97
2022-12-09T00:03:49.946Z,98720.72
2022-12-09T00:06:23.979Z,98711.19
2022-12-09T00:08:52.972Z,98704.34
2022-12-09T00:11:21.583Z,98699.22
2022-12-09T00:13:50.891Z,98701.00
2022-12-09T00:16:19.955Z,98702.78
2022-12-09T00:18:48.548Z,98713.94
2022-12-09T00:21:23.619Z,98720.66
2022-12-09T00:23:53.337Z,98727.66
2022-12-09T00:26:22.837Z,98723.28
2022-12-09T00:28:51.955Z,98730.91
2022-12-09T00:31:24.700Z,98724.09
2022-12-09T00:33:55.482Z,98728.47
2022-12-09T00:36:24.245Z,98726.69
2022-12-09T00:38:54.094Z,98721.50
2022-12-09T00:41:22.043Z,98724.94
2022-12-09T00:43:51.896Z,98719.06
2022-12-09T00:46:20.431Z,98718.16
2022-12-09T00:48:48.317Z,98717.22
2022-12-09T00:51:18.675Z,98722.38
2022-12-09T00:53:47.752Z,98720.66
2022-12-09T00:56:16.011Z,98726.75
2022-12-09T00:58:44.024Z,98724.25
2022-12-09T01:01:12.463Z,98738.03
2022-12-09T01:03:40.695Z,98731.16
2022-12-09T01:06:13.780Z,98738.03
2022-12-09T01:08:43.037Z,98741.47
2022-12-09T01:11:14.557Z,98738.00
2022-12-09T01:13:42.897Z,98736.31
2022-12-09T01:16:33.713Z,98726.63
2022-12-09T01:19:07.478Z,98732.56
2022-12-09T01:21:36.100Z,98726.50
2022-12-09T01:24:10.855Z,98722.25
2022-12-09T01:26:39.414Z,98720.69
2022-12-09T01:29:07.923Z,98729.28
2022-12-09T01:31:36.670Z,98729.28
2022-12-09T01:34:05.145Z,98718.13
2022-12-09T01:36:33.742Z,98712.91
2022-12-09T01:39:01.578Z,98711.34
2022-12-09T01:41:29.685Z,98704.41
2022-12-09T01:44:16.336Z,98701.00
2022-12-09T01:46:44.582Z,98708.66
2022-12-09T01:49:17.724Z,98719.00
2022-12-09T01:51:50.953Z,98710.50
2022-12-09T01:54:19.287Z,98717.28
2022-12-09T01:56:47.548Z,98722.44
2022-12-09T01:59:15.925Z,98716.31
2022-12-09T02:01:46.431Z,98714.56
2022-12-09T02:04:15.045Z,98713.87
2022-12-09T02:06:43.519Z,98715.56
2022-12-09T02:09:11.834Z,98714.72
2022-12-09T02:12:07.188Z,98704.41
2022-12-09T02:14:50.584Z,98700.91
2022-12-09T02:17:35.520Z,98695.00
2022-12-09T02:20:35.669Z,98701.72
2022-12-09T02:23:16.417Z,98694.12
2022-12-09T02:25:48.749Z,98692.34
2022-12-09T02:28:25.892Z,98694.12
2022-12-09T02:31:20.448Z,98688.13
2022-12-09T02:34:07.483Z,98690.69
2022-12-09T02:36:47.391Z,98700.03
2022-12-09T02:39:15.936Z,98691.53
2022-12-09T02:41:46.869Z,98682.94
2022-12-09T02:44:17.425Z,98685.50
2022-12-09T02:46:46.502Z,98682.97
2022-12-09T02:49:15.330Z,98690.59
2022-12-09T02:51:44.220Z,98689.78
2022-12-09T02:54:16.534Z,98683.81
2022-12-09T02:56:54.105Z,98679.47
2022-12-09T02:59:23.129Z,98679.47
2022-12-09T03:02:19.194Z,98684.59
2022-12-09T03:04:54.574Z,98683.81
2022-12-09T03:07:27.406Z,98678.66
2022-12-09T03:10:21.979Z,98676.06
2022-12-09T03:12:55.711Z,98676.09
2022-12-09T03:15:26.405Z,98672.66
2022-12-09T03:17:55.367Z,98685.50
2022-12-09T03:20:27.028Z,98688.06
2022-12-09T03:22:59.635Z,98691.56
2022-12-09T03:25:31.497Z,98687.06
2022-12-09T03:28:05.461Z,98686.38
2022-12-09T03:30:36.186Z,98694.00
2022-12-09T03:33:05.109Z,98688.06
2022-12-09T03:35:39.623Z,98680.34
2022-12-09T03:38:11.439Z,98687.06
2022-12-09T03:40:40.714Z,98682.84
2022-12-09T03:43:15.197Z,98675.97
2022-12-09T03:45:43.826Z,98676.84
2022-12-09T03:48:12.261Z,98677.66
2022-12-09T03:50:59.832Z,98683.69
2022-12-09T03:53:34.284Z,98679.44
2022-12-09T03:56:19.864Z,98685.50
2022-12-09T03:58:49.873Z,98672.63
2022-12-09T04:01:18.403Z,98679.53
2022-12-09T04:03:50.141Z,98672.63
2022-12-09T04:06:18.379Z,98667.41
2022-12-09T04:08:47.161Z,98668.28
2022-12-09T04:11:15.460Z,98674.31
2022-12-09T04:13:43.275Z,98674.31
2022-12-09T04:16:11.781Z,98663.91
2022-12-09T04:18:40.097Z,98662.13
2022-12-09T04:21:09.765Z,98660.53
2022-12-09T04:23:43.064Z,98661.38
2022-12-09T04:26:17.667Z,98657.00
2022-12-09T04:28:46.050Z,98661.34
2022-12-09T04:31:15.388Z,98667.34
2022-12-09T04:33:44.115Z,98663.97
2022-12-09T04:36:15.423Z,98664.88
2022-12-09T04:38:43.510Z,98647.59
2022-12-09T04:41:12.564Z,98651.94
2022-12-09T04:43:41.680Z,98646.78
2022-12-09T04:46:16.166Z,98654.53
2022-12-09T04:48:46.404Z,98646.81
2022-12-09T04:51:15.674Z,98651.13
2022-12-09T04:53:43.694Z,98658.00
2022-12-09T04:56:14.873Z,98649.41
2022-12-09T04:58:44.929Z,98653.69
2022-12-09T05:01:17.698Z,98656.25
2022-12-09T05:03:51.191Z,98639.94
2022-12-09T05:06:21.404Z,98651.16
2022-12-09T05:08:50.552Z,98652.84
2022-12-09T05:11:20.635Z,98652.84
2022-12-09T05:13:49.751Z,98650.28
2022-12-09T05:16:20.161Z,98651.97
2022-12-09T05:18:49.820Z,98644.28
2022-12-09T05:21:20.119Z,98634.81
2022-12-09T05:23:49.367Z,98640.78
2022-12-09T05:26:20.826Z,98635.63
2022-12-09T05:28:50.039Z,98638.25
2022-12-09T05:31:20.393Z,98641.66
2022-12-09T05:33:50.489Z,98643.38
2022-12-09T05:36:21.676Z,98650.25
2022-12-09T05:38:50.920Z,98649.38
2022-12-09T05:41:19.328Z,98636.50
2022-12-09T05:43:47.746Z,98637.37
2022-12-09T05:46:16.219Z,98633.94
2022-12-09T05:48:45.133Z,98626.19
2022-12-09T05:51:17.957Z,98630.47
2022-12-09T05:53:46.399Z,98623.59
2022-12-09T05:56:18.831Z,98626.19
2022-12-09T05:58:47.614Z,98627.91
2022-12-09T06:01:17.347Z,98616.72
2022-12-09T06:03:50.099Z,98621.03
2022-12-09T06:06:20.627Z,98618.44
2022-12-09T06:08:49.585Z,98626.19
2022-12-09T06:11:21.026Z,98623.63
2022-12-09T06:13:50.687Z,98616.75
2022-12-09T06:16:20.722Z,98615.84
2022-12-09T06:18:50.402Z,98617.59
2022-12-09T06:21:19.996Z,98617.59
2022-12-09T06:23:48.876Z,98621.00
2022-12-09T06:26:27.143Z,98615.00
2022-12-09T06:28:56.254Z,98617.59
2022-12-09T06:31:24.940Z,98614.16
2022-12-09T06:33:55.763Z,98619.31
2022-12-09T06:36:25.503Z,98622.78
2022-12-09T06:38:54.685Z,98628.69
2022-12-09T06:41:23.211Z,98615.03
2022-12-09T06:43:52.046Z,98617.56
2022-12-09T06:46:25.176Z,98619.31
2022-12-09T06:48:55.665Z,98612.44
2022-12-09T06:51:25.119Z,98612.41
2022-12-09T06:53:54.355Z,98606.37
2022-12-09T06:56:23.229Z,98610.66
2022-12-09T06:58:52.065Z,98606.37
2022-12-09T07:01:25.162Z,98608.13
2022-12-09T07:03:55.680Z,98602.12
2022-12-09T07:06:28.941Z,98601.25
2022-12-09T07:08:59.894Z,98597.78
2022-12-09T07:11:29.294Z,98598.56
2022-12-09T07:13:57.686Z,98603.81
2022-12-09T07:16:25.953Z,98601.25
2022-12-09T07:18:54.753Z,98594.38
2022-12-09T07:21:24.005Z,98595.25
2022-12-09T07:23:54.605Z,98599.41
2022-12-09T07:26:23.492Z,98599.53
2022-12-09T07:28:51.917Z,98604.66
2022-12-09T07:31:28.590Z,98601.19
2022-12-09T07:33:58.938Z,98605.50
2022-12-09T07:36:28.907Z,98597.81
2022-12-09T07:38:59.420Z,98596.94
2022-12-09T07:43:56.610Z,98590.91
2022-12-09T07:46:29.062Z,98591.78
2022-12-09T07:48:58.356Z,98594.38
2022-12-09T07:51:27.154Z,98591.78
2022-12-09T07:53:56.388Z,98596.94
2022-12-09T07:56:24.863Z,98584.91
2022-12-09T07:58:54.669Z,98590.06
2022-12-09T08:01:27.616Z,98583.09
2022-12-09T08:03:57.006Z,98583.97
2022-12-09T08:06:27.588Z,98582.22
2022-12-09T08:09:05.367Z,98580.50
2022-12-09T08:11:35.070Z,98584.00
2022-12-09T08:14:12.285Z,98581.47
2022-12-09T08:16:43.628Z,98577.16
2022-12-09T08:19:12.806Z,98569.41
2022-12-09T08:21:43.348Z,98562.53
2022-12-09T08:24:12.824Z,98568.53
2022-12-09T08:26:42.431Z,98565.03
2022-12-09T08:29:12.941Z,98563.34
2022-12-09T08:31:43.169Z,98557.28
2022-12-09T08:34:13.499Z,98557.28
2022-12-09T08:36:43.374Z,98551.13
2022-12-09T08:39:13.333Z,98555.47
2022-12-09T08:41:41.446Z,98560.59
2022-12-09T08:44:16.433Z,98551.19
2022-12-09T08:46:49.543Z,98546.06
2022-12-09T08:49:23.311Z,98539.19
2022-12-09T08:51:52.798Z,98547.03
2022-12-09T08:54:21.759Z,98532.25
2022-12-09T08:56:52.943Z,98539.13
2022-12-09T08:59:21.696Z,98534.84
2022-12-09T09:01:51.622Z,98528.03
2022-12-09T09:04:21.758Z,98523.63
2022-12-09T09:06:51.618Z,98521.84
2022-12-09T09:09:21.319Z,98515.16
2022-12-09T09:11:50.233Z,98517.84
2022-12-09T09:14:19.261Z,98515.88
2022-12-09T09:16:47.468Z,98516.81
2022-12-09T09:19:21.862Z,98519.41
2022-12-09T09:21:51.100Z,98517.72
2022-12-09T09:24:22.249Z,98513.56
2022-12-09T09:26:51.831Z,98497.97
2022-12-09T09:29:21.300Z,98500.47
2022-12-09T09:31:54.441Z,98501.28
2022-12-09T09:34:25.361Z,98506.44
2022-12-09T09:36:55.648Z,98489.12
2022-12-09T09:39:24.190Z,98490.03
2022-12-09T09:42:08.072Z,98481.50
2022-12-09T09:44:44.772Z,98485.63
2022-12-09T09:47:17.740Z,98483.97
2022-12-09T09:49:52.540Z,98485.72
2022-12-09T09:52:22.644Z,98474.41
2022-12-09T09:54:52.149Z,98474.53
2022-12-09T09:57:33.953Z,98470.22
2022-12-09T10:00:10.149Z,98460.63
2022-12-09T10:03:10.503Z,98457.22
2022-12-09T10:06:01.668Z,98451.16
2022-12-09T10:08:32.918Z,98436.75
2022-12-09T10:11:23.434Z,98430.63
2022-12-09T10:13:56.767Z,98421.97
2022-12-09T10:16:54.538Z,98412.44
2022-12-09T10:19:30.961Z,98406.41
2022-12-09T10:22:13.654Z,98393.53
2022-12-09T10:24:58.128Z,98396.81
2022-12-09T10:27:38.999Z,98380.56
2022-12-09T10:30:10.566Z,98374.72
2022-12-09T10:32:56.393Z,98372.13
2022-12-09T10:35:44.262Z,98355.69
2022-12-09T10:38:22.210Z,98350.41
2022-12-09T10:40:57.835Z,98346.03
2022-12-09T10:43:36.528Z,98333.47
2022-12-09T10:46:24.283Z,98320.72
2022-12-09T10:48:59.794Z,98319.56
2022-12-09T10:51:30.503Z,98314.50
2022-12-09T10:54:17.885Z,98314.50
2022-12-09T10:57:15.108Z,98319.63
2022-12-09T11:00:00.880Z,98307.00
2022-12-09T11:02:31.151Z,98305.00
2022-12-09T11:05:22.880Z,98296.56
2022-12-09T11:07:52.722Z,98291.25
2022-12-09T11:10:25.097Z,98279.88
2022-12-09T11:12:55.998Z,98279.88
2022-12-09T11:15:38.836Z,98280.81
2022-12-09T11:18:15.025Z,98268.81
2022-12-09T11:20:46.972Z,98262.81
2022-12-09T11:23:21.336Z,98262.81
2022-12-09T11:26:00.319Z,98262.72
2022-12-09T11:28:41.120Z,98273.75
2022-12-09T11:31:32.620Z,98265.59
2022-12-09T11:34:05.521Z,98274.91
2022-12-09T11:36:44.352Z,98263.53
2022-12-09T11:39:24.854Z,98258.53
2022-12-09T11:42:19.998Z,98256.75
2022-12-09T11:45:07.326Z,98254.22
2022-12-09T11:48:21.547Z,98253.94
2022-12-09T11:50:33.552Z,98246.03
2022-12-09T11:53:12.509Z,98242.88
2022-12-09T11:55:53.895Z,98236.53
2022-12-09T11:58:49.835Z,98235.16
2022-12-09T12:01:24.867Z,98224.78
2022-12-09T12:03:57.470Z,98215.03
2022-12-09T12:06:46.760Z,98203.81
2022-12-09T12:09:25.752Z,98205.88
2022-12-09T12:12:14.865Z,98216.03
2022-12-09T12:14:45.508Z,98216.75
2022-12-09T12:17:27.845Z,98215.16
2022-12-09T12:20:00.506Z,98222.81
2022-12-09T12:22:56.753Z,98211.63
2022-12-09T12:25:55.868Z,98193.78
2022-12-09T12:29:11.464Z,98180.19
2022-12-09T12:32:11.712Z,98192.97
2022-12-09T12:35:12.611Z,98186.87
2022-12-09T12:38:05.445Z,98192.06
2022-12-09T12:41:01.496Z,98191.72
2022-12-09T12:44:18.433Z,98191.94
2022-12-09T12:47:05.464Z,98193.63
2022-12-09T12:49:58.691Z,98184.97
2022-12-09T12:53:05.344Z,98178.31
2022-12-09T12:55:52.140Z,98175.00
2022-12-09T12:58:29.136Z,98174.78
2022-12-09T13:01:08.655Z,98167.72
2022-12-09T13:04:05.944Z,98167.56
2022-12-09T13:06:39.733Z,98165.94
2022-12-09T13:09:39.175Z,98162.53
2022-12-09T13:12:11.988Z,98151.13
2022-12-09T13:14:52.198Z,98146.34
2022-12-09T13:17:28.548Z,98150.03
2022-12-09T13:20:00.240Z,98151.78
2022-12-09T13:22:41.303Z,98162.94
2022-12-09T13:25:28.083Z,98160.44
2022-12-09T13:28:04.345Z,98163.97
2022-12-09T13:31:00.425Z,98148.94
2022-12-09T13:33:48.698Z,98149.06
2022-12-09T13:36:22.446Z,98144.03
2022-12-09T13:38:50.925Z,98131.91
2022-12-09T13:41:30.877Z,98139.00
2022-12-09T13:44:12.077Z,98142.13
2022-12-09T13:46:43.029Z,98140.16
2022-12-09T13:49:12.046Z,98140.53
2022-12-09T13:51:54.285Z,98138.59
2022-12-09T13:54:24.485Z,98141.09
2022-12-09T13:57:23.894Z,98136.00
2022-12-09T13:59:54.174Z,98140.53
2022-12-09T14:02:53.276Z,98130.75
2022-12-09T14:05:26.374Z,98123.12
2022-12-09T14:08:00.216Z,98119.66
2022-12-09T14:10:50.475Z,98122.31
2022-12-09T14:13:33.266Z,98116.16
2022-12-09T14:16:29.542Z,98109.66
2022-12-09T14:18:59.614Z,98113.28
2022-12-09T14:21:31.635Z,98105.38
2022-12-09T14:24:09.264Z,98098.09
2022-12-09T14:26:48.031Z,98086.44
2022-12-09T14:29:49.829Z,98083.97
2022-12-09T14:32:19.564Z,98086.50
2022-12-09T14:35:11.265Z,98086.50
2022-12-09T14:38:17.467Z,98083.59
2022-12-09T14:41:06.645Z,98082.22
2022-12-09T14:43:50.341Z,98064.97
2022-12-09T14:46:27.047Z,98072.28
2022-12-09T14:49:06.523Z,98070.69
2022-12-09T14:51:40.983Z,98053.78
2022-12-09T14:54:20.526Z,98061.22
2022-12-09T14:56:50.735Z,98054.56
2022-12-09T14:59:24.895Z,98041.00
2022-12-09T15:02:01.215Z,98047.78
2022-12-09T15:04:33.960Z,98053.00
2022-12-09T15:07:23.477Z,98043.06
2022-12-09T15:09:57.633Z,98047.28
2022-12-09T15:12:47.078Z,98051.16
2022-12-09T15:15:32.109Z,98038.34
2022-12-09T15:18:09.185Z,98028.06
2022-12-09T15:20:41.783Z,98027.31
2022-12-09T15:23:20.664Z,98022.41
2022-12-09T15:25:51.438Z,98022.78
2022-12-09T15:28:26.395Z,98027.53
2022-12-09T15:31:18.634Z,98028.38
2022-12-09T15:33:52.586Z,98017.00
2022-12-09T15:36:26.856Z,98008.94
2022-12-09T15:39:01.400Z,98004.47
2022-12-09T15:41:53.815Z,98003.47
2022-12-09T15:44:24.886Z,98004.19
2022-12-09T15:46:55.378Z,97994.25
2022-12-09T15:49:27.389Z,97995.13
2022-12-09T15:52:00.814Z,97991.28
2022-12-09T15:54:34.655Z,97984.72
2022-12-09T15:57:04.757Z,97984.59
2022-12-09T15:59:40.039Z,97988.37
2022-12-09T16:02:12.868Z,97966.56
2022-12-09T16:04:47.197Z,97972.69
2022-12-09T16:07:16.847Z,97972.09
2022-12-09T16:10:06.532Z,97963.47
2022-12-09T16:12:36.898Z,97963.25
2022-12-09T16:15:07.963Z,97953.84
2022-12-09T16:17:56.115Z,97951.34
2022-12-09T16:20:37.717Z,97942.16
2022-12-09T16:23:19.030Z,97937.41
2022-12-09T16:25:49.842Z,97934.09
2022-12-09T16:28:27.693Z,97932.06
2022-12-09T16:31:04.021Z,97938.75
2022-12-09T16:33:37.968Z,97935.31
2022-12-09T16:36:07.438Z,97927.28
2022-12-09T16:38:37.733Z,97928.16
2022-12-09T16:41:08.770Z,97913.34
2022-12-09T16:43:37.760Z,97914.78
2022-12-09T16:46:14.836Z,97918.22
2022-12-09T16:48:44.743Z,97901.81
2022-12-09T16:51:17.993Z,97896.09
2022-12-09T16:53:55.686Z,97890.09
2022-12-09T16:56:28.388Z,97876.16
2022-12-09T16:58:57.347Z,97878.75
2022-12-09T17:01:29.323Z,97877.16
2022-12-09T17:04:23.557Z,97870.91
2022-12-09T17:06:51.814Z,97870.81
2022-12-09T17:09:20.296Z,97875.22
2022-12-09T17:11:49.240Z,97867.97
2022-12-09T17:14:19.881Z,97855.19
2022-12-09T17:16:47.952Z,97846.06
2022-12-09T17:19:15.927Z,97839.34
2022-12-09T17:21:44.530Z,97839.53
2022-12-09T17:24:12.646Z,97838.94
2022-12-09T17:26:41.069Z,97834.41
2022-12-09T17:29:10.178Z,97834.09
2022-12-09T17:31:58.512Z,97830.38
2022-12-09T17:34:54.853Z,97842.19
2022-12-09T17:37:34.463Z,97832.81
2022-12-09T17:40:18.133Z,97834.00
2022-12-09T17:42:51.894Z,97836.25
2022-12-09T17:45:22.595Z,97826.25
2022-12-09T17:47:55.476Z,97821.50
2022-12-09T17:50:27.948Z,97825.91
2022-12-09T17:52:57.361Z,97818.06
2022-12-09T17:55:26.145Z,97817.19
2022-12-09T17:57:54.527Z,97813.50
2022-12-09T18:00:25.249Z,97811.81
2022-12-09T18:02:53.680Z,97813.34
2022-12-09T18:05:23.117Z,97809.84
2022-12-09T18:07:52.436Z,97801.78
2022-12-09T18:10:20.844Z,97799.78
2022-12-09T18:12:48.835Z,97802.16
2022-12-09T18:15:16.892Z,97803.47
2022-12-09T18:17:49.434Z,97805.41
2022-12-09T18:20:17.644Z,97801.75
2022-12-09T18:22:45.956Z,97793.47
2022-12-09T18:25:14.706Z,97786.00
2022-12-09T18:27:42.644Z,97782.78
2022-12-09T18:30:11.746Z,97775.19
2022-12-09T18:32:40.792Z,97777.84
2022-12-09T18:35:09.885Z,97774.91
2022-12-09T18:37:38.193Z,97780.75
2022-12-09T18:40:07.384Z,97767.56
2022-12-09T18:42:36.445Z,97777.69
2022-12-09T18:45:05.561Z,97771.91
2022-12-09T18:47:33.825Z,97777.81
2022-12-09T18:50:01.917Z,97771.91
2022-12-09T18:52:31.304Z,97755.34
2022-12-09T18:54:59.220Z,97762.28
2022-12-09T18:57:30.708Z,97763.16
2022-12-09T18:59:59.625Z,97760.56
2022-12-09T19:02:27.542Z,97763.97
2022-12-09T19:04:56.837Z,97764.72
2022-12-09T19:07:29.161Z,97766.75
2022-12-09T19:10:00.477Z,97752.63
2022-12-09T19:12:46.367Z,97743.63
2022-12-09T19:15:15.266Z,97728.91
2022-12-09T19:17:47.365Z,97740.78
2022-12-09T19:20:15.444Z,97738.63
2022-12-09T19:22:49.251Z,97746.84
2022-12-09T19:25:20.086Z,97740.62
2022-12-09T19:27:48.462Z,97736.34
2022-12-09T19:30:16.412Z,97726.62
2022-12-09T19:32:53.349Z,97729.63
2022-12-09T19:35:24.757Z,97725.22
2022-12-09T19:37:56.636Z,97717.38
2022-12-09T19:40:34.923Z,97711.31
2022-12-09T19:43:03.384Z,97707.69
2022-12-09T19:45:33.671Z,97709.59
2022-12-09T19:48:02.108Z,97701.41
2022-12-09T19:50:30.444Z,97693.53
2022-12-09T19:52:58.883Z,97688.97
2022-12-09T19:55:26.781Z,97692.00
2022-12-09T19:57:54.643Z,97693.44
2022-12-09T20:00:22.821Z,97689.44
2022-12-09T20:02:51.357Z,97695.03
2022-12-09T20:05:19.235Z,97695.25
2022-12-09T20:07:47.190Z,97691.59
2022-12-09T20:10:15.476Z,97688.22
2022-12-09T20:12:43.366Z,97692.78
2022-12-09T20:15:11.553Z,97691.69
2022-12-09T20:17:41.228Z,97685.78
2022-12-09T20:20:10.888Z,97687.94
2022-12-09T20:22:39.234Z,97670.81
2022-12-09T20:25:07.455Z,97662.66
2022-12-09T20:27:35.268Z,97649.53
2022-12-09T20:30:03.744Z,97647.97
2022-12-09T20:32:32.522Z,97644.97
2022-12-09T20:35:08.057Z,97637.84
2022-12-09T20:37:36.854Z,97644.91
2022-12-09T20:40:05.321Z,97634.81
2022-12-09T20:42:33.475Z,97631.72
2022-12-09T20:45:01.693Z,97638.84
2022-12-09T20:47:29.562Z,97628.91
2022-12-09T20:49:57.652Z,97642.94
2022-12-09T20:52:25.924Z,97633.09
2022-12-09T20:54:53.897Z,97633.78
2022-12-09T20:57:21.837Z,97642.12
2022-12-09T20:59:50.062Z,97648.50
2022-12-09T21:02:18.222Z,97647.94
2022-12-09T21:04:46.790Z,97645.44
2022-12-09T21:07:14.992Z,97640.00
2022-12-09T21:09:44.846Z,97644.31
2022-12-09T21:12:13.614Z,97648.13
2022-12-09T21:14:42.190Z,97639.06
2022-12-09T21:17:10.409Z,97626.59
2022-12-09T21:19:38.485Z,97628.28
2022-12-09T21:22:06.826Z,97636.09
2022-12-09T21:24:35.030Z,97636.38
2022-12-09T21:27:03.272Z,97638.03
2022-12-09T21:29:32.354Z,97630.06
2022-12-09T21:32:02.009Z,97639.22
2022-12-09T21:34:30.150Z,97639.38
2022-12-09T21:36:58.728Z,97647.44
2022-12-09T21:39:28.306Z,97636.06
2022-12-09T21:41:56.389Z,97639.97
2022-12-09T21:44:25.688Z,97639.81
2022-12-09T21:46:54.017Z,97630.69
2022-12-09T21:49:22.039Z,97635.03
2022-12-09T21:51:50.437Z,97638.50
2022-12-09T21:54:18.380Z,97637.72
2022-12-09T21:56:46.449Z,97632.31
2022-12-09T21:59:14.940Z,97643.56
2022-12-09T22:01:43.430Z,97645.69
2022-12-09T22:04:15.468Z,97634.50
2022-12-09T22:06:48.788Z,97641.09
2022-12-09T22:09:18.383Z,97636.50
2022-12-09T22:11:46.408Z,97640.38
2022-12-09T22:14:14.537Z,97633.63
2022-12-09T22:16:44.567Z,97641.56
2022-12-09T22:19:16.361Z,97641.38
2022-12-09T22:21:45.310Z,97639.09
2022-12-09T22:24:15.317Z,97634.28
2022-12-09T22:26:43.818Z,97632.91
2022-12-09T22:29:14.537Z,97631.28
2022-12-09T22:31:43.411Z,97633.75
2022-12-09T22:34:21.011Z,97634.88
2022-12-09T22:36:49.846Z,97631.69
2022-12-09T22:39:21.801Z,97629.28
2022-12-09T22:41:50.669Z,97628.94
2022-12-09T22:44:20.359Z,97629.41
2022-12-09T22:46:48.688Z,97630.16
2022-12-09T22:49:17.297Z,97629.69
2022-12-09T22:51:46.519Z,97627.62
2022-12-09T22:54:15.080Z,97629.97
2022-12-09T22:56:43.370Z,97633.91
2022-12-09T22:59:13.470Z,97635.63
2022-12-09T23:01:47.387Z,97636.06
2022-12-09T23:04:19.039Z,97630.00
2022-12-09T23:06:47.078Z,97642.34
2022-12-09T23:09:22.709Z,97646.34
2022-12-09T23:11:51.729Z,97645.37
2022-12-09T23:14:20.286Z,97640.03
2022-12-09T23:16:48.416Z,97632.16
2022-12-09T23:19:16.924Z,97636.28
2022-12-09T23:21:45.364Z,97631.25
2022-12-09T23:24:21.174Z,97627.53
2022-12-09T23:26:54.925Z,97632.34
2022-12-09T23:29:23.199Z,97635.34
2022-12-09T23:31:51.320Z,97631.47
2022-12-09T23:34:20.218Z,97633.28
2022-12-09T23:36:48.491Z,97638.37
2022-12-09T23:39:18.167Z,97640.44
2022-12-09T23:41:46.740Z,97642.59
2022-12-09T23:44:17.186Z,97642.75
2022-12-09T23:46:45.282Z,97651.28
2022-12-09T23:49:13.757Z,97641.62
2022-12-09T23:51:44.166Z,97645.66
2022-12-09T23:54:14.908Z,97645.47
2022-12-09T23:57:01.774Z,97649.94
2022-12-09T23:59:29.978Z,97648.34
